createdAt,value
2019-04-25T00:03:55.524Z,3.07
2019-04-25T00:08:24.868Z,3.10
2019-04-25T00:12:33.354Z,2.80
2019-04-25T00:16:44.140Z,2.73
2019-04-25T00:20:54.702Z,3.00
2019-04-25T00:25:21.872Z,2.90
2019-04-25T00:29:31.854Z,2.87
2019-04-25T00:33:41.983Z,3.00
2019-04-25T00:37:52.214Z,3.27
2019-04-25T00:42:02.403Z,3.40
2019-04-25T00:46:11.470Z,3.60
2019-04-25T00:50:19.943Z,3.57
2019-04-25T00:54:28.478Z,3.90
2019-04-25T00:58:43.061Z,5.10
2019-04-25T01:02:56.749Z,5.60
2019-04-25T01:07:05.687Z,5.53
2019-04-25T01:11:14.159Z,5.63
2019-04-25T01:15:22.746Z,5.80
2019-04-25T01:19:31.230Z,5.50
2019-04-25T01:23:39.991Z,6.03
2019-04-25T01:27:48.590Z,6.63
2019-04-25T01:31:57.661Z,6.27
2019-04-25T01:36:11.123Z,8.13
2019-04-25T01:40:37.400Z,7.00
2019-04-25T01:44:48.035Z,6.87
2019-04-25T01:48:56.636Z,6.50
2019-04-25T01:53:05.203Z,6.63
2019-04-25T01:57:14.322Z,5.70
2019-04-25T02:01:24.129Z,4.70
2019-04-25T02:05:33.804Z,4.67
2019-04-25T02:09:43.573Z,3.83
2019-04-25T02:13:54.284Z,4.30
2019-04-25T02:18:03.795Z,4.03
2019-04-25T02:22:12.539Z,3.83
2019-04-25T02:26:21.120Z,3.80
2019-04-25T02:30:29.672Z,3.87
2019-04-25T02:34:38.278Z,3.83
2019-04-25T02:38:46.788Z,4.23
2019-04-25T02:42:57.315Z,3.50
2019-04-25T02:47:14.835Z,3.80
2019-04-25T02:51:27.905Z,3.57
2019-04-25T02:55:37.649Z,3.60
2019-04-25T02:59:46.457Z,4.10
2019-04-25T03:03:55.018Z,4.50
2019-04-25T03:08:07.974Z,4.70
2019-04-25T03:12:26.607Z,4.03
2019-04-25T03:16:25.163Z,4.60
2019-04-25T03:20:38.976Z,3.80
2019-04-25T03:24:47.467Z,4.23
2019-04-25T03:28:56.348Z,3.57
2019-04-25T03:33:09.615Z,3.63
2019-04-25T03:37:14.991Z,4.20
2019-04-25T03:41:24.528Z,4.80
2019-04-25T03:45:33.333Z,4.20
2019-04-25T03:49:43.321Z,5.30
2019-04-25T03:53:53.465Z,4.73
2019-04-25T03:58:04.913Z,4.73
2019-04-25T04:02:13.487Z,3.83
2019-04-25T04:06:24.077Z,3.00
2019-04-25T04:10:52.013Z,3.00
2019-04-25T04:15:00.575Z,3.60
2019-04-25T04:19:09.118Z,3.27
2019-04-25T04:23:34.272Z,3.20
2019-04-25T04:27:43.788Z,3.57
2019-04-25T04:31:52.883Z,3.80
2019-04-25T04:36:03.892Z,3.40
2019-04-25T04:40:12.617Z,4.17
2019-04-25T04:44:24.125Z,3.60
2019-04-25T04:48:34.219Z,3.53
2019-04-25T04:52:44.047Z,3.60
2019-04-25T04:56:53.671Z,3.63
2019-04-25T05:01:03.636Z,3.43
2019-04-25T05:05:17.164Z,3.70
2019-04-25T05:09:45.285Z,4.90
2019-04-25T05:13:54.190Z,4.63
2019-04-25T05:18:04.056Z,4.60
2019-04-25T05:22:14.822Z,4.53
2019-04-25T05:26:24.906Z,5.43
2019-04-25T05:30:35.554Z,3.93
2019-04-25T05:34:44.092Z,3.77
2019-04-25T05:38:54.231Z,3.87
2019-04-25T05:43:07.060Z,4.07
2019-04-25T05:47:16.366Z,3.43
2019-04-25T05:51:25.984Z,4.10
2019-04-25T05:55:34.460Z,3.93
2019-04-25T05:59:43.639Z,3.80
2019-04-25T06:03:53.604Z,3.50
2019-04-25T06:08:04.151Z,3.30
2019-04-25T06:12:18.183Z,3.60
2019-04-25T06:16:29.298Z,3.87
2019-04-25T06:20:38.187Z,4.00
2019-04-25T06:24:48.354Z,3.20
2019-04-25T06:28:59.495Z,3.50
2019-04-25T06:33:09.656Z,2.50
2019-04-25T06:37:24.549Z,3.00
2019-04-25T06:41:34.040Z,2.90
2019-04-25T06:45:44.255Z,3.10
2019-04-25T06:49:53.224Z,3.00
2019-04-25T06:54:03.327Z,2.70
2019-04-25T06:58:14.307Z,3.83
2019-04-25T07:02:22.730Z,3.77
2019-04-25T07:06:33.813Z,3.40
2019-04-25T07:10:44.483Z,2.80
2019-04-25T07:14:53.928Z,2.80
2019-04-25T07:19:04.547Z,3.23
2019-04-25T07:23:13.831Z,2.92
2019-04-25T07:27:40.407Z,3.50
2019-04-25T07:31:56.499Z,2.83
2019-04-25T07:36:05.042Z,3.30
2019-04-25T07:40:14.752Z,2.73
2019-04-25T07:44:35.264Z,3.20
2019-04-25T07:48:36.301Z,3.70
2019-04-25T07:52:44.274Z,2.60
2019-04-25T07:56:54.788Z,3.50
2019-04-25T08:01:03.997Z,3.03
2019-04-25T08:05:14.763Z,3.60
2019-04-25T08:09:24.287Z,3.13
2019-04-25T08:13:35.211Z,4.00
2019-04-25T08:17:57.752Z,2.80
2019-04-25T08:22:06.389Z,2.83
2019-04-25T08:26:15.211Z,2.73
2019-04-25T08:30:24.061Z,2.90
2019-04-25T08:34:34.413Z,3.10
2019-04-25T08:38:44.552Z,3.00
2019-04-25T08:42:53.808Z,2.90
2019-04-25T08:47:04.013Z,2.53
2019-04-25T08:51:14.282Z,2.47
2019-04-25T08:55:24.422Z,3.50
2019-04-25T08:59:44.749Z,3.33
2019-04-25T09:03:53.847Z,2.97
2019-04-25T09:08:04.126Z,3.40
2019-04-25T09:12:14.019Z,2.70
2019-04-25T09:16:23.951Z,2.27
2019-04-25T09:20:34.865Z,2.53
2019-04-25T09:24:44.419Z,2.37
2019-04-25T09:28:53.754Z,2.60
2019-04-25T09:33:03.058Z,3.13
2019-04-25T09:37:14.167Z,3.17
2019-04-25T09:41:23.640Z,3.57
2019-04-25T09:45:39.752Z,2.60
2019-04-25T09:49:48.779Z,2.20
2019-04-25T09:54:03.413Z,2.27
2019-04-25T09:58:23.844Z,2.50
2019-04-25T10:02:32.456Z,2.67
2019-04-25T10:06:41.056Z,2.93
2019-04-25T10:10:49.539Z,4.20
2019-04-25T10:15:07.208Z,2.80
2019-04-25T10:19:15.815Z,2.70
2019-04-25T10:23:24.330Z,2.60
2019-04-25T10:27:33.183Z,2.70
2019-04-25T10:31:41.702Z,2.80
2019-04-25T10:35:57.898Z,3.20
2019-04-25T10:40:00.728Z,2.67
2019-04-25T10:44:09.579Z,2.57
2019-04-25T10:48:18.055Z,2.80
2019-04-25T10:52:27.333Z,3.10
2019-04-25T10:56:36.240Z,3.00
2019-04-25T11:00:47.776Z,2.10
2019-04-25T11:05:07.773Z,2.57
2019-04-25T11:09:20.598Z,2.40
2019-04-25T11:13:29.567Z,2.77
2019-04-25T11:17:38.107Z,2.50
2019-04-25T11:21:46.672Z,3.40
2019-04-25T11:25:55.787Z,2.57
2019-04-25T11:30:11.172Z,2.90
2019-04-25T11:34:17.151Z,2.60
2019-04-25T11:38:39.524Z,2.50
2019-04-25T11:42:48.266Z,2.13
2019-04-25T11:46:57.075Z,2.30
2019-04-25T11:51:06.594Z,2.53
2019-04-25T11:55:15.952Z,2.17
2019-04-25T11:59:24.441Z,2.47
2019-04-25T12:03:33.662Z,2.17
2019-04-25T12:07:43.261Z,2.37
2019-04-25T12:11:54.305Z,2.37
2019-04-25T12:16:04.143Z,2.27
2019-04-25T12:20:14.127Z,2.20
2019-04-25T12:24:23.924Z,1.90
2019-04-25T12:28:33.855Z,2.23
2019-04-25T12:32:44.071Z,2.47
2019-04-25T12:36:54.428Z,1.80
2019-04-25T12:41:04.081Z,2.33
2019-04-25T12:45:34.276Z,2.20
2019-04-25T12:49:43.820Z,1.80
2019-04-25T12:53:54.690Z,2.10
2019-04-25T12:58:03.538Z,1.93
2019-04-25T13:02:13.357Z,1.93
2019-04-25T13:06:23.866Z,2.40
2019-04-25T13:10:33.285Z,1.60
2019-04-25T13:14:41.948Z,1.90
2019-04-25T13:18:50.978Z,1.93
2019-04-25T13:23:00.506Z,1.77
2019-04-25T13:27:14.203Z,2.07
2019-04-25T13:31:31.274Z,2.00
2019-04-25T13:35:43.858Z,1.83
2019-04-25T13:39:53.960Z,1.73
2019-04-25T13:44:04.681Z,1.80
2019-04-25T13:48:13.278Z,2.27
2019-04-25T13:52:22.776Z,2.07
2019-04-25T13:56:33.683Z,1.83
2019-04-25T14:00:44.140Z,1.93
2019-04-25T14:04:53.009Z,1.93
2019-04-25T14:09:03.192Z,2.13
2019-04-25T14:13:13.438Z,1.50
2019-04-25T14:17:40.173Z,1.90
2019-04-25T14:21:49.407Z,2.00
2019-04-25T14:25:58.246Z,2.07
2019-04-25T14:30:08.596Z,1.60
2019-04-25T14:34:19.165Z,2.20
2019-04-25T14:38:27.675Z,1.80
2019-04-25T14:42:36.223Z,2.30
2019-04-25T14:46:44.745Z,1.97
2019-04-25T14:50:53.228Z,2.20
2019-04-25T14:55:06.571Z,2.00
2019-04-25T14:59:15.076Z,2.23
2019-04-25T15:03:24.082Z,1.70
2019-04-25T15:07:32.734Z,2.00
2019-04-25T15:11:41.254Z,3.20
2019-04-25T15:15:49.825Z,4.03
2019-04-25T15:19:58.371Z,4.90
2019-04-25T15:24:06.957Z,4.37
2019-04-25T15:28:15.395Z,2.77
2019-04-25T15:32:26.173Z,2.13
2019-04-25T15:36:42.928Z,2.57
2019-04-25T15:41:02.140Z,2.03
2019-04-25T15:45:28.972Z,2.30
2019-04-25T15:49:37.563Z,2.10
2019-04-25T15:53:46.115Z,2.50
2019-04-25T15:57:54.787Z,2.30
2019-04-25T16:02:08.329Z,2.57
2019-04-25T16:06:15.195Z,3.17
2019-04-25T16:10:23.630Z,2.30
2019-04-25T16:14:32.111Z,3.57
2019-04-25T16:18:41.186Z,3.93
2019-04-25T16:22:49.758Z,2.80
2019-04-25T16:26:58.478Z,3.10
2019-04-25T16:31:08.599Z,2.73
2019-04-25T16:35:17.242Z,2.53
2019-04-25T16:39:27.381Z,2.43
2019-04-25T16:43:37.602Z,2.90
2019-04-25T16:47:46.181Z,3.13
2019-04-25T16:51:54.653Z,3.03
2019-04-25T16:56:03.406Z,2.97
2019-04-25T17:00:30.860Z,3.10
2019-04-25T17:04:39.624Z,2.57
2019-04-25T17:08:48.110Z,3.10
2019-04-25T17:12:57.041Z,3.10
2019-04-25T17:21:50.132Z,2.60
2019-04-25T17:25:58.674Z,3.53
2019-04-25T17:30:07.924Z,2.97
2019-04-25T17:34:24.044Z,2.70
2019-04-25T17:38:37.571Z,2.77
2019-04-25T17:42:46.299Z,2.37
2019-04-25T17:47:05.839Z,2.23
2019-04-25T17:51:05.344Z,3.50
2019-04-25T17:55:14.209Z,3.50
2019-04-25T17:59:22.704Z,3.30
2019-04-25T18:03:31.179Z,4.10
2019-04-25T18:07:39.666Z,4.60
2019-04-25T18:11:48.135Z,5.13
2019-04-25T18:15:58.235Z,4.93
2019-04-25T18:20:12.340Z,3.13
2019-04-25T18:24:39.168Z,5.10
2019-04-25T18:28:49.286Z,4.50
2019-04-25T18:33:10.230Z,5.10
2019-04-25T18:37:27.083Z,4.00
2019-04-25T18:46:12.652Z,3.60
2019-04-25T18:50:23.099Z,3.20
2019-04-25T18:59:12.654Z,3.90
2019-04-25T19:03:39.475Z,2.87
2019-04-25T19:07:48.076Z,3.30
2019-04-25T19:11:56.550Z,3.40
2019-04-25T19:16:05.558Z,3.00
2019-04-25T19:20:14.263Z,2.77
2019-04-25T19:24:22.860Z,2.60
2019-04-25T19:28:31.445Z,2.67
2019-04-25T19:32:40.607Z,3.07
2019-04-25T19:36:51.125Z,2.40
2019-04-25T19:41:04.493Z,2.77
2019-04-25T19:45:13.685Z,2.90
2019-04-25T19:49:22.196Z,3.10
2019-04-25T19:53:30.715Z,2.90
2019-04-25T19:57:39.330Z,2.90
2019-04-25T20:01:48.743Z,3.10
2019-04-25T20:06:02.083Z,3.60
2019-04-25T20:10:27.587Z,2.83
2019-04-25T20:14:36.344Z,3.03
2019-04-25T20:18:45.647Z,2.67
2019-04-25T20:22:54.455Z,2.83
2019-04-25T20:27:03.167Z,3.30
2019-04-25T20:31:11.671Z,2.70
2019-04-25T20:35:20.155Z,2.93
2019-04-25T20:39:28.619Z,2.92
2019-04-25T20:43:37.104Z,2.63
2019-04-25T20:47:46.554Z,2.63
2019-04-25T20:51:55.159Z,2.70
2019-04-25T20:56:03.736Z,2.53
2019-04-25T21:00:12.877Z,2.73
2019-04-25T21:04:40.602Z,2.27
2019-04-25T21:08:50.054Z,2.50
2019-04-25T21:12:58.673Z,2.80
2019-04-25T21:17:08.893Z,3.00
2019-04-25T21:21:17.511Z,2.67
2019-04-25T21:25:26.025Z,2.60
2019-04-25T21:29:34.961Z,2.85
2019-04-25T21:33:43.478Z,3.10
2019-04-25T21:37:52.496Z,3.10
2019-04-25T21:42:20.469Z,2.80
2019-04-25T21:46:29.555Z,2.70
2019-04-25T21:50:38.398Z,3.03
2019-04-25T21:54:48.557Z,2.70
2019-04-25T21:58:57.817Z,2.50
2019-04-25T22:03:07.912Z,2.30
2019-04-25T22:07:16.686Z,2.80
2019-04-25T22:11:26.042Z,2.93
2019-04-25T22:15:34.795Z,3.53
2019-04-25T22:19:43.655Z,5.30
2019-04-25T22:24:03.359Z,3.20
2019-04-25T22:28:03.085Z,4.20
2019-04-25T22:32:31.696Z,3.10
2019-04-25T22:36:41.031Z,3.10
2019-04-25T22:40:49.997Z,2.63
2019-04-25T22:45:00.386Z,3.00
2019-04-25T22:49:09.048Z,3.00
2019-04-25T22:53:23.169Z,3.20
2019-04-25T22:57:28.040Z,3.00
2019-04-25T23:01:54.507Z,2.80
2019-04-25T23:06:04.042Z,2.90
2019-04-25T23:10:13.527Z,2.83
2019-04-25T23:14:22.040Z,3.00
2019-04-25T23:18:30.548Z,2.80
2019-04-25T23:22:39.122Z,3.33
2019-04-25T23:26:55.486Z,3.10
2019-04-25T23:31:11.318Z,3.23
2019-04-25T23:35:29.280Z,3.27
2019-04-25T23:39:31.155Z,3.37
2019-04-25T23:43:39.669Z,3.70
2019-04-25T23:47:48.267Z,3.50
2019-04-25T23:51:56.962Z,3.40
2019-04-25T23:56:05.506Z,3.70
